Time;durP1;ratioP1;P1;durP2;ratioP2;P2;SDS_P1;SDS_P2;PMS_P1;PMS_P2;Temp;Humidity;BMP_temperature;BMP_pressure;BME280_temperature;BME280_humidity;BME280_pressure;Samples;Min_cycle;Max_cycle;Signal;HPM_P1;HPM_P2
2021/11/06 00:00:28;;;;;;;3.07;1.30;;;9.70;99.90;;;;;;4124577;28;20038;-64
2021/11/06 00:02:29;;;;;;;5.03;0.90;;;9.70;99.90;;;;;;4138903;28;20053;-64
2021/11/06 00:04:30;;;;;;;5.93;1.23;;;9.70;99.90;;;;;;4113248;28;20125;-67
2021/11/06 00:06:31;;;;;;;4.23;1.10;;;9.70;99.90;;;;;;4124038;28;20097;-65
2021/11/06 00:08:33;;;;;;;3.80;1.50;;;9.70;99.90;;;;;;4140888;28;20096;-65
2021/11/06 00:10:34;;;;;;;4.20;1.90;;;9.70;99.90;;;;;;4131528;28;20086;-65
2021/11/06 00:12:36;;;;;;;3.37;1.37;;;9.70;99.90;;;;;;4125147;28;20475;-67
2021/11/06 00:14:37;;;;;;;3.00;1.90;;;9.70;99.90;;;;;;4126169;28;20042;-67
2021/11/06 00:16:39;;;;;;;5.03;2.17;;;9.70;99.90;;;;;;4115359;28;20031;-64
2021/11/06 00:18:40;;;;;;;6.13;2.37;;;9.70;99.90;;;;;;4110579;28;20031;-62
2021/11/06 00:20:41;;;;;;;5.03;2.67;;;9.60;99.90;;;;;;4112219;28;20035;-64
2021/11/06 00:22:43;;;;;;;5.83;1.97;;;9.60;99.90;;;;;;4108993;28;20041;-65
2021/11/06 00:24:44;;;;;;;6.33;1.97;;;9.60;99.90;;;;;;4111077;28;20035;-65
2021/11/06 00:26:49;;;;;;;3.10;2.17;;;9.60;99.90;;;;;;4110876;28;20645;-63
2021/11/06 00:28:50;;;;;;;3.23;1.70;;;9.60;99.90;;;;;;4126284;28;20042;-67
2021/11/06 00:30:52;;;;;;;3.43;1.93;;;9.60;99.90;;;;;;4127729;28;20085;-67
2021/11/06 00:32:53;;;;;;;6.90;3.20;;;9.60;99.90;;;;;;4127487;28;20039;-63
2021/11/06 00:34:54;;;;;;;7.37;2.63;;;9.60;99.90;;;;;;4127884;28;20050;-62
2021/11/06 00:36:55;;;;;;;4.63;1.50;;;9.60;99.90;;;;;;4127242;28;20081;-66
2021/11/06 00:38:57;;;;;;;4.07;1.53;;;9.60;99.90;;;;;;4128394;28;20034;-63
2021/11/06 00:40:58;;;;;;;8.33;3.87;;;9.60;99.90;;;;;;4125973;28;20050;-66
2021/11/06 00:43:00;;;;;;;6.67;2.80;;;9.50;99.90;;;;;;4127315;28;20092;-66
2021/11/06 00:45:03;;;;;;;3.30;1.67;;;9.60;99.90;;;;;;4123449;28;20510;-63
2021/11/06 00:47:06;;;;;;;2.57;1.70;;;9.50;99.90;;;;;;4111695;28;20031;-63
2021/11/06 00:49:08;;;;;;;2.53;1.20;;;9.50;99.90;;;;;;4110582;28;20031;-65
2021/11/06 00:51:09;;;;;;;2.13;1.00;;;9.50;99.90;;;;;;4109819;28;20078;-65
2021/11/06 00:53:10;;;;;;;3.00;1.10;;;9.50;99.90;;;;;;4111234;28;20034;-66
2021/11/06 00:55:12;;;;;;;3.00;0.80;;;9.50;99.90;;;;;;4111294;28;20483;-63
2021/11/06 00:57:13;;;;;;;5.90;1.47;;;9.50;99.90;;;;;;4110707;28;20030;-66
2021/11/06 00:59:15;;;;;;;2.07;1.20;;;9.40;99.90;;;;;;4110918;28;20539;-68
2021/11/06 01:01:17;;;;;;;3.70;1.90;;;9.40;99.90;;;;;;4110700;28;20074;-65
2021/11/06 01:03:18;;;;;;;5.37;1.80;;;9.40;99.90;;;;;;4110092;28;20521;-65
2021/11/06 01:05:19;;;;;;;1.87;1.50;;;9.40;99.90;;;;;;4110701;28;20495;-64
2021/11/06 01:07:20;;;;;;;3.63;2.00;;;9.40;99.90;;;;;;4110262;28;20081;-69
2021/11/06 01:09:22;;;;;;;2.67;2.10;;;9.40;99.90;;;;;;4111363;28;20081;-65
2021/11/06 01:11:23;;;;;;;3.00;1.97;;;9.40;99.90;;;;;;4109773;28;20105;-65
2021/11/06 01:13:25;;;;;;;4.17;1.90;;;9.40;99.90;;;;;;4111101;28;20043;-66
2021/11/06 01:15:26;;;;;;;3.27;1.47;;;9.40;99.90;;;;;;4110599;28;20042;-68
2021/11/06 01:17:27;;;;;;;3.07;1.73;;;9.30;99.90;;;;;;4112283;28;20031;-63
2021/11/06 01:19:29;;;;;;;4.10;1.30;;;9.40;99.90;;;;;;4126270;28;21047;-65
2021/11/06 01:21:30;;;;;;;1.60;0.97;;;9.30;99.90;;;;;;4126534;28;20093;-64
2021/11/06 01:23:31;;;;;;;1.87;1.67;;;9.30;99.90;;;;;;4126225;28;20043;-65
2021/11/06 01:25:32;;;;;;;2.83;0.93;;;9.30;99.90;;;;;;4126580;28;20526;-67
2021/11/06 01:27:34;;;;;;;5.03;1.83;;;9.30;99.90;;;;;;4125966;28;20474;-66
2021/11/06 01:29:36;;;;;;;1.67;0.63;;;9.30;99.90;;;;;;4127068;28;20505;-66
2021/11/06 01:31:37;;;;;;;1.43;0.60;;;9.30;99.90;;;;;;4126224;28;20038;-66
2021/11/06 01:33:38;;;;;;;2.47;0.60;;;9.30;99.90;;;;;;4126484;28;20595;-66
2021/11/06 01:35:39;;;;;;;3.80;1.10;;;9.30;99.90;;;;;;4126063;28;20038;-63
2021/11/06 01:37:41;;;;;;;3.40;0.83;;;9.30;99.90;;;;;;4125942;28;20100;-67
2021/11/06 01:39:42;;;;;;;1.87;0.50;;;9.30;99.90;;;;;;4126586;28;20379;-66
2021/11/06 01:41:43;;;;;;;2.67;0.70;;;9.20;99.90;;;;;;4124910;28;20046;-62
2021/11/06 01:43:45;;;;;;;2.20;0.60;;;9.30;99.90;;;;;;4117221;28;20129;-67
2021/11/06 01:45:54;;;;;;;4.03;0.70;;;9.30;99.90;;;;;;4109780;28;20034;-68
2021/11/06 01:47:55;;;;;;;1.00;0.60;;;9.20;99.90;;;;;;4118576;28;20491;-66
2021/11/06 01:49:57;;;;;;;1.73;0.57;;;9.20;99.90;;;;;;4125063;28;20093;-62
2021/11/06 01:51:58;;;;;;;2.80;0.53;;;9.20;99.90;;;;;;4126912;28;20443;-67
2021/11/06 01:53:59;;;;;;;3.23;0.83;;;9.20;99.90;;;;;;4125303;28;20050;-65
2021/11/06 01:56:01;;;;;;;2.03;0.90;;;9.20;99.90;;;;;;4126331;28;20046;-64
2021/11/06 01:58:02;;;;;;;2.03;0.93;;;9.10;99.90;;;;;;4125555;28;20061;-64
2021/11/06 02:00:10;;;;;;;2.60;0.80;;;9.10;99.90;;;;;;4126642;28;20089;-66
2021/11/06 02:02:11;;;;;;;4.03;2.17;;;9.10;99.90;;;;;;4125015;28;20034;-64
2021/11/06 02:04:13;;;;;;;7.03;2.30;;;9.10;99.90;;;;;;4124731;28;20046;-68
2021/11/06 02:06:15;;;;;;;9.50;2.20;;;9.10;99.90;;;;;;4124693;28;20097;-62
2021/11/06 02:08:17;;;;;;;4.07;1.33;;;9.00;99.90;;;;;;4125814;28;20030;-66
2021/11/06 02:10:19;;;;;;;2.83;1.90;;;9.00;99.90;;;;;;4125361;28;20481;-65
2021/11/06 02:12:21;;;;;;;2.30;0.80;;;9.00;99.90;;;;;;4109726;28;20058;-65
2021/11/06 02:14:23;;;;;;;4.37;0.93;;;9.00;99.90;;;;;;4109776;28;20468;-67
2021/11/06 02:16:26;;;;;;;2.60;0.97;;;8.90;99.90;;;;;;4109256;28;20431;-62
2021/11/06 02:18:27;;;;;;;1.57;1.00;;;8.90;99.90;;;;;;4110389;28;20062;-63
2021/11/06 02:20:28;;;;;;;1.10;0.53;;;8.90;99.90;;;;;;4109310;28;20027;-66
2021/11/06 02:22:33;;;;;;;5.53;1.30;;;8.90;99.90;;;;;;4110398;28;20093;-66
2021/11/06 02:24:34;;;;;;;3.37;1.20;;;8.90;99.90;;;;;;4108450;28;20050;-65
2021/11/06 02:26:35;;;;;;;14.40;1.47;;;8.90;99.90;;;;;;4109518;28;20050;-64
2021/11/06 02:28:37;;;;;;;2.83;0.97;;;8.90;99.90;;;;;;4112201;28;20041;-69
2021/11/06 02:30:38;;;;;;;5.80;1.20;;;8.90;99.90;;;;;;4126204;28;20799;-67
2021/11/06 02:32:40;;;;;;;2.50;1.10;;;9.00;99.90;;;;;;4125198;28;20030;-68
2021/11/06 02:34:42;;;;;;;2.53;1.07;;;9.00;99.90;;;;;;4126245;28;20046;-67
2021/11/06 02:36:43;;;;;;;4.30;1.90;;;9.00;99.90;;;;;;4123604;28;20085;-65
2021/11/06 02:38:44;;;;;;;4.83;1.50;;;9.00;99.90;;;;;;4125113;28;20364;-68
2021/11/06 02:40:45;;;;;;;7.93;2.10;;;8.90;99.90;;;;;;4124890;28;20060;-63
2021/11/06 02:42:46;;;;;;;2.47;1.60;;;8.90;99.90;;;;;;4125172;28;20101;-67
2021/11/06 02:44:48;;;;;;;3.80;1.47;;;8.90;99.90;;;;;;4125454;28;20088;-62
2021/11/06 02:46:49;;;;;;;7.67;1.90;;;8.90;99.90;;;;;;4124326;28;20046;-63
2021/11/06 02:48:50;;;;;;;3.93;1.40;;;8.90;99.90;;;;;;4126065;28;20030;-63
2021/11/06 02:50:52;;;;;;;5.80;1.17;;;8.90;99.90;;;;;;4124438;28;20529;-68
2021/11/06 02:52:53;;;;;;;3.93;1.20;;;8.90;99.90;;;;;;4124946;28;20112;-65
2021/11/06 02:54:55;;;;;;;8.27;1.60;;;8.90;99.90;;;;;;4111158;28;20042;-67
2021/11/06 02:56:56;;;;;;;4.90;1.73;;;9.00;99.90;;;;;;4107818;28;20150;-65
2021/11/06 02:58:57;;;;;;;6.60;1.97;;;9.00;99.90;;;;;;4108362;28;20480;-63
2021/11/06 03:00:59;;;;;;;3.53;2.00;;;9.00;99.90;;;;;;4109320;28;20070;-66
2021/11/06 03:03:00;;;;;;;9.20;4.53;;;9.00;99.90;;;;;;4108540;28;20034;-62
2021/11/06 03:05:06;;;;;;;8.33;3.30;;;9.10;99.90;;;;;;4108874;28;20051;-64
2021/11/06 03:07:07;;;;;;;6.57;3.17;;;9.10;99.90;;;;;;4108127;28;20027;-63
2021/11/06 03:09:10;;;;;;;8.87;4.33;;;9.00;99.90;;;;;;4109578;28;20078;-68
2021/11/06 03:11:11;;;;;;;16.33;4.33;;;9.00;99.90;;;;;;4116504;28;20065;-63
2021/11/06 03:13:12;;;;;;;12.40;4.10;;;9.00;99.90;;;;;;4124387;28;20100;-67
2021/11/06 03:15:14;;;;;;;7.30;3.73;;;8.90;99.90;;;;;;4124218;28;20561;-64
2021/11/06 03:17:15;;;;;;;8.70;2.83;;;8.90;99.90;;;;;;4124682;28;20038;-66
2021/11/06 03:19:16;;;;;;;8.00;3.07;;;8.80;99.90;;;;;;4115671;28;20081;-63
2021/11/06 03:21:19;;;;;;;7.23;2.97;;;8.80;99.90;;;;;;4107764;28;20046;-66
2021/11/06 03:23:20;;;;;;;5.47;2.90;;;8.80;99.90;;;;;;4108754;28;20089;-65
2021/11/06 03:25:21;;;;;;;6.73;2.90;;;8.90;99.90;;;;;;4107514;28;20042;-64
2021/11/06 03:27:22;;;;;;;8.23;2.73;;;8.90;99.90;;;;;;4109559;28;20438;-67
2021/11/06 03:29:24;;;;;;;7.70;3.37;;;8.90;99.90;;;;;;4108183;28;20094;-66
2021/11/06 03:31:25;;;;;;;6.57;2.97;;;8.90;99.90;;;;;;4108991;28;20109;-65
2021/11/06 03:33:26;;;;;;;8.37;3.77;;;8.90;99.90;;;;;;4107859;28;20051;-64
2021/11/06 03:35:27;;;;;;;9.73;3.47;;;9.00;99.90;;;;;;4125033;28;20418;-62
2021/11/06 03:37:28;;;;;;;5.73;3.67;;;9.00;99.90;;;;;;4124201;28;20030;-66
2021/11/06 03:39:30;;;;;;;4.90;2.80;;;9.00;99.90;;;;;;4124443;28;20446;-67
2021/11/06 03:41:31;;;;;;;4.97;3.13;;;9.10;99.90;;;;;;4123950;28;20051;-66
2021/11/06 03:43:32;;;;;;;5.17;3.23;;;9.10;99.90;;;;;;4111915;28;20097;-64
2021/11/06 03:45:33;;;;;;;8.87;3.60;;;9.00;99.90;;;;;;4108053;28;20101;-64
2021/11/06 03:47:35;;;;;;;5.90;3.07;;;9.10;99.90;;;;;;4107907;28;20085;-62
2021/11/06 03:49:36;;;;;;;8.07;3.90;;;9.10;99.90;;;;;;4108581;28;20031;-62
2021/11/06 03:51:37;;;;;;;4.57;2.83;;;9.10;99.90;;;;;;4107910;28;20442;-64
2021/11/06 03:53:38;;;;;;;6.47;2.57;;;9.10;99.90;;;;;;4107298;28;20065;-61
2021/11/06 03:55:39;;;;;;;5.23;2.77;;;9.10;99.90;;;;;;4107423;28;20038;-62
2021/11/06 03:57:41;;;;;;;4.83;2.63;;;9.10;99.90;;;;;;4109027;28;20031;-67
2021/11/06 03:59:42;;;;;;;6.17;2.60;;;9.10;99.90;;;;;;4108109;28;20034;-65
2021/11/06 04:01:43;;;;;;;3.70;2.30;;;9.10;99.90;;;;;;4109002;28;20090;-66
2021/11/06 04:03:45;;;;;;;3.13;2.40;;;9.10;99.90;;;;;;4108006;28;20039;-63
2021/11/06 04:05:46;;;;;;;4.83;2.10;;;9.10;99.90;;;;;;4108530;28;20054;-64
2021/11/06 04:07:47;;;;;;;2.13;1.50;;;9.10;99.90;;;;;;4112424;28;20809;-63
2021/11/06 04:09:48;;;;;;;5.40;1.70;;;9.10;99.90;;;;;;4124783;28;20031;-69
2021/11/06 04:11:50;;;;;;;4.30;2.00;;;9.20;99.90;;;;;;4123673;28;20889;-66
2021/11/06 04:13:51;;;;;;;6.60;2.23;;;9.20;99.90;;;;;;4124158;28;20085;-64
2021/11/06 04:15:53;;;;;;;2.37;1.80;;;9.20;99.90;;;;;;4124035;28;20045;-67
2021/11/06 04:17:54;;;;;;;2.30;1.97;;;9.20;99.90;;;;;;4123793;28;20038;-67
2021/11/06 04:19:55;;;;;;;3.53;1.93;;;9.20;99.90;;;;;;4123937;28;20502;-67
2021/11/06 04:21:56;;;;;;;3.77;2.23;;;9.20;99.90;;;;;;4123804;28;20038;-63
2021/11/06 04:23:58;;;;;;;6.90;2.37;;;9.20;99.90;;;;;;4124592;28;20043;-64
2021/11/06 04:25:59;;;;;;;5.33;2.60;;;9.20;99.90;;;;;;4123058;28;20519;-66
2021/11/06 04:28:00;;;;;;;5.20;2.30;;;9.20;99.90;;;;;;4122854;28;20046;-66
2021/11/06 04:30:05;;;;;;;7.60;2.60;;;9.20;99.90;;;;;;4123107;28;20034;-63
2021/11/06 04:32:06;;;;;;;6.10;2.67;;;9.20;99.90;;;;;;4122704;28;20042;-66
2021/11/06 04:34:08;;;;;;;6.63;2.50;;;9.20;99.90;;;;;;4107856;28;20447;-62
2021/11/06 04:36:09;;;;;;;5.57;2.70;;;9.20;99.90;;;;;;4106715;28;21067;-62
2021/11/06 04:38:11;;;;;;;3.33;2.17;;;9.20;99.90;;;;;;4106513;28;20027;-66
2021/11/06 04:40:13;;;;;;;3.53;2.47;;;9.20;99.90;;;;;;4108228;28;20035;-66
2021/11/06 04:42:14;;;;;;;4.00;2.37;;;9.20;99.90;;;;;;4108587;28;20038;-64
2021/11/06 04:44:15;;;;;;;7.53;3.30;;;9.20;99.90;;;;;;4124074;28;20042;-65
2021/11/06 04:46:17;;;;;;;5.07;2.07;;;9.20;99.90;;;;;;4115541;28;20476;-65
2021/11/06 04:48:18;;;;;;;3.43;2.10;;;9.20;99.90;;;;;;4107779;28;20132;-68
2021/11/06 04:50:19;;;;;;;3.00;2.50;;;9.20;99.90;;;;;;4107677;28;20031;-67
2021/11/06 04:52:20;;;;;;;5.63;2.73;;;9.20;99.90;;;;;;4107264;28;20035;-65
2021/11/06 04:54:21;;;;;;;5.97;3.60;;;9.20;99.90;;;;;;4108261;28;20134;-68
2021/11/06 04:56:23;;;;;;;3.97;2.50;;;9.20;99.90;;;;;;4122424;28;20097;-67
2021/11/06 04:58:24;;;;;;;5.20;3.17;;;9.20;99.90;;;;;;4124195;28;20101;-63
2021/11/06 05:00:25;;;;;;;6.40;2.80;;;9.20;99.90;;;;;;4122224;28;20097;-67
2021/11/06 05:02:26;;;;;;;6.90;3.37;;;9.20;99.90;;;;;;4127768;28;20104;-64
2021/11/06 05:04:28;;;;;;;9.60;3.83;;;9.20;99.90;;;;;;4125643;28;20081;-66
2021/11/06 05:06:31;;;;;;;6.70;3.60;;;9.20;99.90;;;;;;4127720;28;20829;-63
2021/11/06 05:08:32;;;;;;;6.07;3.50;;;9.10;99.90;;;;;;4126259;28;20026;-62
2021/11/06 05:10:33;;;;;;;8.07;3.80;;;9.20;99.90;;;;;;4126592;28;20080;-63
2021/11/06 05:12:35;;;;;;;7.33;3.50;;;9.20;99.90;;;;;;4109895;28;20729;-62
2021/11/06 05:14:36;;;;;;;6.83;3.67;;;9.10;99.90;;;;;;4110696;28;20094;-65
2021/11/06 05:16:38;;;;;;;6.37;2.90;;;9.10;99.90;;;;;;4110031;28;20031;-66
2021/11/06 05:18:39;;;;;;;7.07;4.07;;;9.10;99.90;;;;;;4112581;28;20102;-63
2021/11/06 05:20:43;;;;;;;6.93;3.00;;;9.10;99.90;;;;;;4126502;28;20438;-65
2021/11/06 05:22:44;;;;;;;4.77;3.40;;;9.10;99.90;;;;;;4126284;28;20038;-67
2021/11/06 05:24:45;;;;;;;7.30;2.90;;;9.10;99.90;;;;;;4125892;28;20042;-65
2021/11/06 05:26:46;;;;;;;7.50;2.77;;;9.10;99.90;;;;;;4125294;28;20112;-66
2021/11/06 05:28:48;;;;;;;5.80;2.90;;;9.20;99.90;;;;;;4126876;28;20085;-65
2021/11/06 05:30:50;;;;;;;5.37;2.80;;;9.20;99.90;;;;;;4125519;28;20085;-62
2021/11/06 05:32:51;;;;;;;4.87;2.90;;;9.10;99.90;;;;;;4127323;28;20089;-65
2021/11/06 05:34:52;;;;;;;7.87;3.33;;;9.20;99.90;;;;;;4116576;28;20502;-63
2021/11/06 05:36:54;;;;;;;4.43;2.57;;;9.20;99.90;;;;;;4110487;28;20098;-65
2021/11/06 05:38:56;;;;;;;4.77;2.93;;;9.20;99.90;;;;;;4108930;28;20044;-66
2021/11/06 05:40:57;;;;;;;5.20;3.30;;;9.30;99.90;;;;;;4109474;28;21047;-67
2021/11/06 05:42:58;;;;;;;5.07;2.80;;;9.30;99.90;;;;;;4109121;28;20046;-67
2021/11/06 05:45:01;;;;;;;5.03;2.40;;;9.30;99.90;;;;;;4110322;28;20361;-66
2021/11/06 05:47:02;;;;;;;4.07;2.37;;;9.30;99.90;;;;;;4109216;28;20031;-65
2021/11/06 05:49:04;;;;;;;6.03;2.70;;;9.30;99.90;;;;;;4109857;28;20047;-64
2021/11/06 05:51:05;;;;;;;2.27;2.07;;;9.30;99.90;;;;;;4110118;28;20443;-60
2021/11/06 05:53:06;;;;;;;5.23;3.30;;;9.30;99.90;;;;;;4110405;28;20074;-66
2021/11/06 05:55:11;;;;;;;4.83;3.30;;;9.30;99.90;;;;;;4123965;28;20490;-61
2021/11/06 05:57:12;;;;;;;5.43;3.43;;;9.30;99.90;;;;;;4125057;28;20150;-62
2021/11/06 05:59:13;;;;;;;7.83;3.83;;;9.30;99.90;;;;;;4126184;28;20027;-63
2021/11/06 06:01:14;;;;;;;6.00;3.77;;;9.30;99.90;;;;;;4125080;28;20031;-65
2021/11/06 06:03:15;;;;;;;4.40;3.20;;;9.30;99.90;;;;;;4126395;28;20034;-62
2021/11/06 06:05:17;;;;;;;5.13;3.57;;;9.30;99.90;;;;;;4125348;28;20506;-64
2021/11/06 06:07:18;;;;;;;5.53;3.37;;;9.30;99.90;;;;;;4126006;28;20031;-64
2021/11/06 06:09:20;;;;;;;3.33;2.50;;;9.30;99.90;;;;;;4124628;28;20113;-62
2021/11/06 06:11:21;;;;;;;4.30;3.20;;;9.30;99.90;;;;;;4125390;28;20046;-63
2021/11/06 06:13:22;;;;;;;7.73;3.57;;;9.30;99.90;;;;;;4124421;28;20462;-63
2021/11/06 06:15:23;;;;;;;5.50;3.70;;;9.30;99.90;;;;;;4123530;28;20112;-64
2021/11/06 06:17:24;;;;;;;8.10;3.53;;;9.30;99.90;;;;;;4124332;28;20092;-62
2021/11/06 06:19:25;;;;;;;7.37;4.00;;;9.30;99.90;;;;;;4125475;28;20038;-65
2021/11/06 06:21:27;;;;;;;7.27;4.20;;;9.40;99.90;;;;;;4125082;28;20372;-63
2021/11/06 06:23:28;;;;;;;7.40;4.67;;;9.40;99.90;;;;;;4124746;28;20038;-61
2021/11/06 06:25:29;;;;;;;6.53;3.80;;;9.30;99.90;;;;;;4124823;28;20076;-63
2021/11/06 06:27:30;;;;;;;7.00;4.50;;;9.30;99.90;;;;;;4124889;28;20876;-63
2021/11/06 06:29:32;;;;;;;9.03;5.13;;;9.30;99.90;;;;;;4125107;28;20042;-62
2021/11/06 06:31:35;;;;;;;8.80;5.17;;;9.30;99.90;;;;;;4124180;28;20030;-62
2021/11/06 06:33:36;;;;;;;7.67;4.67;;;9.30;99.90;;;;;;4125238;28;20046;-61
2021/11/06 06:35:37;;;;;;;6.33;4.23;;;9.30;99.90;;;;;;4123155;28;20324;-62
2021/11/06 06:37:39;;;;;;;8.37;5.00;;;9.30;99.90;;;;;;4125759;28;20543;-64
2021/11/06 06:39:40;;;;;;;11.80;5.23;;;9.30;99.90;;;;;;4124454;28;20182;-62
2021/11/06 06:41:41;;;;;;;11.07;7.63;;;9.40;99.90;;;;;;4124685;28;20042;-66
2021/11/06 06:43:42;;;;;;;10.27;6.97;;;9.40;99.90;;;;;;4124323;28;20475;-63
2021/11/06 06:45:44;;;;;;;12.93;7.97;;;9.40;99.90;;;;;;4109002;28;20047;-67
2021/11/06 06:47:45;;;;;;;16.33;8.43;;;9.40;99.90;;;;;;4107627;28;20443;-65
2021/11/06 06:49:47;;;;;;;14.30;9.07;;;9.50;99.90;;;;;;4108928;28;20035;-63
2021/11/06 06:51:48;;;;;;;19.67;9.70;;;9.50;99.90;;;;;;4107310;28;20825;-64
2021/11/06 06:53:49;;;;;;;14.50;10.43;;;9.40;99.90;;;;;;4108207;28;20097;-64
2021/11/06 06:55:50;;;;;;;16.80;10.67;;;9.50;99.90;;;;;;4108336;28;20051;-62
2021/11/06 06:57:51;;;;;;;18.53;10.40;;;9.40;99.90;;;;;;4107657;28;20046;-64
2021/11/06 06:59:53;;;;;;;22.87;10.90;;;9.40;99.90;;;;;;4108838;28;20113;-64
2021/11/06 07:01:54;;;;;;;16.20;9.70;;;9.50;99.90;;;;;;4120387;28;20510;-61
2021/11/06 07:03:56;;;;;;;16.23;9.73;;;9.50;99.90;;;;;;4125467;28;20558;-63
2021/11/06 07:05:57;;;;;;;16.23;10.13;;;9.50;99.90;;;;;;4124052;28;20100;-63
2021/11/06 07:07:58;;;;;;;16.03;10.10;;;9.50;99.90;;;;;;4125033;28;20042;-65
2021/11/06 07:09:59;;;;;;;19.03;10.53;;;9.60;99.90;;;;;;4123526;28;20031;-68
2021/11/06 07:12:01;;;;;;;13.57;7.93;;;9.60;99.90;;;;;;4124158;28;20100;-63
2021/11/06 07:14:02;;;;;;;14.77;7.90;;;9.70;99.90;;;;;;4123535;28;20067;-62
2021/11/06 07:16:04;;;;;;;11.27;6.57;;;9.70;99.90;;;;;;4124492;28;20736;-63
2021/11/06 07:18:05;;;;;;;13.43;6.67;;;9.80;99.90;;;;;;4123613;28;20038;-63
2021/11/06 07:20:07;;;;;;;19.30;9.10;;;10.10;99.90;;;;;;4124237;28;20093;-65
2021/11/06 07:22:08;;;;;;;13.70;7.83;;;10.40;99.90;;;;;;4123783;28;20030;-62
2021/11/06 07:24:10;;;;;;;11.57;6.73;;;10.50;99.90;;;;;;4124016;28;20085;-63
2021/11/06 07:26:11;;;;;;;9.10;6.50;;;10.50;99.90;;;;;;4122739;28;20030;-62
2021/11/06 07:28:12;;;;;;;13.07;8.50;;;10.40;99.90;;;;;;4123991;28;20030;-61
2021/11/06 07:30:13;;;;;;;14.30;8.57;;;10.30;99.90;;;;;;4124655;28;20450;-62
2021/11/06 07:32:14;;;;;;;18.47;10.13;;;10.10;99.90;;;;;;4123315;28;20124;-64
2021/11/06 07:34:15;;;;;;;14.83;9.17;;;10.10;99.90;;;;;;4125328;28;20085;-63
2021/11/06 07:36:17;;;;;;;16.07;9.87;;;10.30;99.90;;;;;;4123361;28;20034;-61
2021/11/06 07:38:18;;;;;;;12.13;8.47;;;10.60;99.90;;;;;;4124352;28;20046;-64
2021/11/06 07:40:19;;;;;;;14.50;7.67;;;10.80;99.90;;;;;;4122573;28;20038;-62
2021/11/06 07:42:20;;;;;;;13.40;7.73;;;11.00;99.90;;;;;;4115727;28;20107;-60
2021/11/06 07:44:21;;;;;;;10.87;6.00;;;11.10;99.90;;;;;;4123327;28;20030;-62
2021/11/06 07:46:23;;;;;;;23.30;5.60;;;11.40;99.90;;;;;;4129055;28;20059;-66
2021/11/06 07:48:24;;;;;;;10.77;5.37;;;11.40;99.90;;;;;;4139647;28;20037;-62
2021/11/06 07:50:26;;;;;;;13.20;5.17;;;11.50;99.90;;;;;;4140663;28;20041;-64
2021/11/06 07:52:27;;;;;;;9.37;4.90;;;11.40;99.90;;;;;;4108553;28;20035;-66
2021/11/06 07:54:29;;;;;;;9.10;4.60;;;11.50;99.90;;;;;;4107386;28;20039;-64
2021/11/06 07:56:30;;;;;;;6.83;4.50;;;11.50;99.90;;;;;;4113048;28;20046;-65
2021/11/06 07:58:31;;;;;;;11.57;4.80;;;11.50;99.90;;;;;;4123253;28;20502;-63
2021/11/06 08:00:32;;;;;;;11.07;5.23;;;11.40;99.90;;;;;;4122640;28;20089;-62
2021/11/06 08:02:33;;;;;;;14.00;5.00;;;11.40;99.90;;;;;;4112392;28;20501;-63
2021/11/06 08:04:35;;;;;;;7.00;4.67;;;11.30;99.90;;;;;;4114125;28;20042;-58
2021/11/06 08:06:37;;;;;;;5.37;4.43;;;11.20;99.90;;;;;;4111278;28;20038;-62
2021/11/06 08:08:39;;;;;;;10.50;4.30;;;11.20;99.90;;;;;;4111660;28;20583;-63
2021/11/06 08:10:40;;;;;;;8.80;4.70;;;11.20;99.90;;;;;;4108922;28;20109;-62
2021/11/06 08:12:42;;;;;;;13.57;6.73;;;11.10;99.90;;;;;;4110506;28;20038;-61
2021/11/06 08:14:43;;;;;;;8.03;5.10;;;11.10;99.90;;;;;;4112033;28;20070;-63
2021/11/06 08:16:49;;;;;;;7.60;4.13;;;11.20;99.90;;;;;;4111536;28;20054;-61
2021/11/06 08:18:50;;;;;;;5.67;3.43;;;11.30;99.90;;;;;;4110286;28;20030;-61
2021/11/06 08:20:51;;;;;;;10.63;4.17;;;11.50;99.90;;;;;;4115023;28;20026;-62
2021/11/06 08:22:53;;;;;;;7.90;3.50;;;11.80;99.90;;;;;;4111376;28;20177;-60
2021/11/06 08:24:54;;;;;;;6.63;3.33;;;12.10;99.90;;;;;;4110495;28;20034;-61
2021/11/06 08:26:55;;;;;;;6.33;3.30;;;12.20;99.90;;;;;;4110801;28;20038;-65
2021/11/06 08:28:56;;;;;;;5.10;3.33;;;12.50;99.90;;;;;;4108990;28;20384;-61
2021/11/06 08:30:57;;;;;;;4.77;3.10;;;12.70;99.90;;;;;;4111101;28;20030;-61
2021/11/06 08:32:59;;;;;;;7.07;4.23;;;12.70;99.90;;;;;;4113205;28;20728;-61
2021/11/06 08:35:00;;;;;;;8.57;4.90;;;12.80;99.90;;;;;;4111799;28;20827;-63
2021/11/06 08:37:01;;;;;;;7.17;3.43;;;12.80;99.90;;;;;;4111564;28;20042;-66
2021/11/06 08:39:04;;;;;;;7.50;3.27;;;13.00;99.90;;;;;;4114917;28;20089;-65
2021/11/06 08:41:05;;;;;;;10.37;3.10;;;13.00;99.90;;;;;;4115607;28;20039;-65
2021/11/06 08:43:07;;;;;;;5.37;2.97;;;12.90;99.90;;;;;;4117313;28;21557;-64
2021/11/06 08:45:11;;;;;;;5.30;3.07;;;13.10;99.90;;;;;;4112952;28;20092;-65
2021/11/06 08:47:12;;;;;;;7.07;3.70;;;13.10;99.90;;;;;;4114821;28;20116;-64
2021/11/06 08:49:14;;;;;;;6.40;3.50;;;13.20;99.90;;;;;;4113092;28;20054;-67
2021/11/06 08:51:15;;;;;;;7.90;3.33;;;13.30;99.90;;;;;;4114488;28;20089;-64
2021/11/06 08:53:17;;;;;;;6.23;3.00;;;13.50;99.90;;;;;;4109143;28;20134;-62
2021/11/06 08:55:19;;;;;;;11.10;3.23;;;13.80;99.90;;;;;;4111830;28;20054;-63
2021/11/06 08:57:22;;;;;;;6.23;2.90;;;13.90;99.90;;;;;;4117238;28;20124;-63
2021/11/06 08:59:23;;;;;;;18.57;10.37;;;14.20;99.90;;;;;;4113440;28;20097;-63
2021/11/06 09:01:25;;;;;;;4.77;3.10;;;14.20;99.90;;;;;;4113471;28;20102;-62
2021/11/06 09:03:26;;;;;;;4.67;2.70;;;14.20;99.90;;;;;;4115681;28;20043;-61
2021/11/06 09:05:27;;;;;;;5.30;3.20;;;13.90;99.90;;;;;;4113610;28;20043;-62
2021/11/06 09:07:32;;;;;;;6.37;2.50;;;13.70;99.90;;;;;;4116834;28;20137;-62
2021/11/06 09:09:33;;;;;;;4.23;2.33;;;13.60;99.90;;;;;;4113572;28;20034;-58
2021/11/06 09:11:36;;;;;;;3.37;2.13;;;13.50;99.90;;;;;;4113574;28;20038;-69
2021/11/06 09:13:38;;;;;;;4.60;1.90;;;13.40;99.90;;;;;;4113300;28;20042;-63
2021/11/06 09:15:41;;;;;;;4.87;1.83;;;13.40;99.90;;;;;;4111966;28;20777;-62
2021/11/06 09:17:42;;;;;;;4.10;2.40;;;13.40;99.90;;;;;;4113434;28;20086;-64
2021/11/06 09:19:43;;;;;;;6.97;2.40;;;13.30;99.90;;;;;;4121229;28;20042;-63
2021/11/06 09:21:44;;;;;;;1.70;1.27;;;13.30;99.90;;;;;;4121304;28;20034;-62
2021/11/06 09:23:48;;;;;;;2.23;1.30;;;13.20;99.90;;;;;;4117527;28;20047;-63
2021/11/06 09:25:49;;;;;;;5.17;2.27;;;13.30;99.90;;;;;;4113080;28;20085;-67
2021/11/06 09:27:50;;;;;;;4.53;1.90;;;13.30;99.90;;;;;;4116725;28;20034;-63
2021/11/06 09:29:52;;;;;;;3.33;2.17;;;13.30;99.90;;;;;;4112649;28;20109;-64
2021/11/06 09:31:53;;;;;;;4.30;1.60;;;13.40;99.90;;;;;;4112252;28;20034;-61
2021/11/06 09:33:54;;;;;;;6.03;2.27;;;13.40;99.90;;;;;;4115741;28;20034;-63
2021/11/06 09:35:56;;;;;;;5.70;1.57;;;13.50;99.90;;;;;;4112101;28;20058;-62
2021/11/06 09:37:57;;;;;;;2.87;1.50;;;13.50;99.90;;;;;;4119173;28;20030;-65
2021/11/06 09:39:59;;;;;;;3.03;1.50;;;13.60;99.90;;;;;;4114301;28;20115;-64
2021/11/06 09:42:01;;;;;;;2.87;1.40;;;13.60;99.90;;;;;;4120047;28;20101;-64
2021/11/06 09:44:02;;;;;;;2.13;1.70;;;13.50;99.90;;;;;;4109871;28;20582;-67
2021/11/06 09:46:05;;;;;;;4.27;1.50;;;13.60;99.90;;;;;;4108248;28;20035;-63
2021/11/06 09:48:07;;;;;;;4.80;1.80;;;13.60;99.90;;;;;;4109313;28;20082;-65
2021/11/06 09:50:08;;;;;;;2.07;1.80;;;13.70;99.90;;;;;;4110498;28;20047;-62
2021/11/06 09:52:10;;;;;;;2.33;1.40;;;13.80;99.90;;;;;;4126045;28;20092;-67
2021/11/06 09:54:12;;;;;;;7.87;2.20;;;13.90;99.90;;;;;;4124545;28;20561;-64
2021/11/06 09:56:19;;;;;;;4.63;1.67;;;13.90;99.90;;;;;;4125666;28;20388;-68
2021/11/06 09:58:20;;;;;;;3.87;1.90;;;13.80;99.90;;;;;;4124318;28;20492;-66
2021/11/06 10:00:22;;;;;;;4.63;2.40;;;13.60;99.90;;;;;;4125799;28;20027;-64
2021/11/06 10:02:23;;;;;;;1.97;1.77;;;13.60;99.90;;;;;;4124806;28;20081;-65
2021/11/06 10:04:26;;;;;;;4.43;2.80;;;13.60;99.90;;;;;;4125260;28;20098;-69
2021/11/06 10:06:28;;;;;;;10.73;3.70;;;13.60;99.90;;;;;;4125327;28;20371;-66
2021/11/06 10:08:38;;;;;;;7.87;2.37;;;13.60;99.90;;;;;;4125257;28;20546;-62
2021/11/06 10:10:39;;;;;;;6.75;3.63;;;13.70;99.90;;;;;;4124510;28;20035;-65
2021/11/06 10:12:44;;;;;;;4.57;1.73;;;13.70;99.90;;;;;;4124872;28;20117;-64
2021/11/06 10:14:45;;;;;;;2.17;1.50;;;13.60;99.90;;;;;;4125197;28;20027;-64
2021/11/06 10:16:51;;;;;;;4.17;1.80;;;13.60;99.90;;;;;;4124450;28;21062;-65
2021/11/06 10:19:29;;;;;;;5.23;1.93;;;13.60;99.90;;;;;;4125711;28;20480;-63
2021/11/06 10:21:30;;;;;;;7.23;2.73;;;13.70;99.90;;;;;;4123163;28;20566;-63
2021/11/06 10:23:37;;;;;;;11.10;2.63;;;13.70;99.90;;;;;;4124883;28;20106;-65
2021/11/06 10:25:38;;;;;;;3.57;2.20;;;13.80;99.90;;;;;;4124090;28;20088;-63
2021/11/06 10:27:58;;;;;;;5.37;2.27;;;13.80;99.90;;;;;;4125114;28;20096;-63
2021/11/06 10:30:11;;;;;;;4.20;2.08;;;13.70;99.90;;;;;;4124737;28;20542;-64
2021/11/06 10:32:12;;;;;;;7.17;2.50;;;13.90;99.90;;;;;;4124446;28;20552;-63
2021/11/06 10:34:14;;;;;;;8.60;3.00;;;14.00;99.90;;;;;;4124527;28;20034;-63
2021/11/06 10:36:21;;;;;;;4.10;2.42;;;14.10;99.90;;;;;;4125639;28;20093;-64
2021/11/06 10:38:28;;;;;;;3.58;2.25;;;14.10;99.90;;;;;;4124301;28;20065;-62